Time;durP1;ratioP1;P1;durP2;ratioP2;P2;SDS_P1;SDS_P2;PMS_P1;PMS_P2;Temp;Humidity;BMP_temperature;BMP_pressure;BME280_temperature;BME280_humidity;BME280_pressure;Samples;Min_cycle;Max_cycle;Signal;HPM_P1;HPM_P2
2023/07/19 00:02:18;;;;;;;5.83;4.47;;;18.60;99.90;;;;;;5001293;28;20214;-66
2023/07/19 00:04:44;;;;;;;5.80;4.63;;;18.60;99.90;;;;;;4997806;28;20217;-66
2023/07/19 00:07:11;;;;;;;7.43;4.90;;;18.60;99.90;;;;;;4998635;28;20202;-67
2023/07/19 00:09:37;;;;;;;6.30;4.53;;;18.50;99.90;;;;;;4998179;28;20174;-67
2023/07/19 00:12:03;;;;;;;6.80;4.33;;;18.50;99.90;;;;;;5000791;28;20471;-66
2023/07/19 00:14:28;;;;;;;7.30;4.70;;;18.50;99.90;;;;;;4998726;28;20498;-65
2023/07/19 00:16:54;;;;;;;6.17;4.20;;;18.40;99.90;;;;;;4996048;28;20862;-66
2023/07/19 00:19:19;;;;;;;5.40;3.63;;;18.40;99.90;;;;;;4997979;28;20647;-66
2023/07/19 00:21:45;;;;;;;6.63;4.63;;;18.50;99.90;;;;;;4997828;28;20247;-66
2023/07/19 00:24:10;;;;;;;8.10;5.20;;;18.50;99.90;;;;;;5003054;28;20549;-66
2023/07/19 00:26:36;;;;;;;6.93;4.93;;;18.40;99.90;;;;;;5008855;28;20234;-66
2023/07/19 00:29:02;;;;;;;9.40;6.43;;;18.40;99.90;;;;;;5009454;28;20169;-65
2023/07/19 00:31:27;;;;;;;4.87;4.37;;;18.40;99.90;;;;;;5001960;28;20188;-65
2023/07/19 00:33:53;;;;;;;6.63;4.43;;;18.40;99.90;;;;;;5009672;28;20587;-67
2023/07/19 00:36:18;;;;;;;5.87;4.40;;;18.50;99.90;;;;;;5002180;28;22472;-66
2023/07/19 00:38:44;;;;;;;10.90;5.53;;;18.60;99.90;;;;;;5002115;28;20185;-67
2023/07/19 00:41:09;;;;;;;6.43;5.00;;;18.60;99.90;;;;;;5000131;28;20623;-67
2023/07/19 00:43:36;;;;;;;6.87;3.90;;;18.60;99.90;;;;;;5008698;28;20187;-67
2023/07/19 00:46:02;;;;;;;6.73;5.20;;;18.50;99.90;;;;;;5002026;28;20169;-68
2023/07/19 00:48:28;;;;;;;4.87;4.17;;;18.60;99.90;;;;;;5004881;28;20489;-67
2023/07/19 00:50:55;;;;;;;4.87;4.40;;;18.50;99.90;;;;;;5003495;28;20463;-68
2023/07/19 00:53:24;;;;;;;7.00;5.80;;;18.50;99.90;;;;;;5003961;28;20200;-67
2023/07/19 00:55:50;;;;;;;4.87;4.37;;;18.50;99.90;;;;;;5003690;28;20460;-66
2023/07/19 00:58:17;;;;;;;6.07;3.80;;;18.40;99.90;;;;;;5005902;28;20470;-66
2023/07/19 01:00:45;;;;;;;5.23;3.30;;;18.30;99.90;;;;;;4999363;28;20212;-66
2023/07/19 01:03:10;;;;;;;4.80;3.83;;;18.40;99.90;;;;;;4997751;28;20426;-66
2023/07/19 01:05:36;;;;;;;5.77;3.40;;;18.50;99.90;;;;;;5007925;28;20432;-67
2023/07/19 01:08:11;;;;;;;7.80;3.63;;;18.50;99.90;;;;;;5002991;28;20687;-67
2023/07/19 01:10:37;;;;;;;4.17;3.63;;;18.50;99.90;;;;;;4996236;28;20431;-66
2023/07/19 01:13:03;;;;;;;4.17;3.60;;;18.50;99.90;;;;;;5008332;28;20491;-67
2023/07/19 01:15:29;;;;;;;5.43;2.93;;;18.30;99.90;;;;;;5000265;28;20660;-66
2023/07/19 01:17:54;;;;;;;4.73;3.43;;;18.30;99.90;;;;;;4996649;28;20483;-66
2023/07/19 01:20:20;;;;;;;5.00;3.50;;;18.30;99.90;;;;;;4998727;28;20267;-67
2023/07/19 01:22:46;;;;;;;5.23;3.70;;;18.30;99.90;;;;;;4998702;28;20240;-67
2023/07/19 01:25:12;;;;;;;5.97;3.50;;;18.30;99.90;;;;;;5001263;28;20177;-67
2023/07/19 01:27:39;;;;;;;3.43;2.87;;;18.20;99.90;;;;;;5001006;28;20207;-68
2023/07/19 01:30:06;;;;;;;5.80;3.20;;;18.20;99.90;;;;;;5003644;28;20428;-67
2023/07/19 01:32:31;;;;;;;5.00;3.90;;;18.20;99.90;;;;;;5004368;28;20441;-67
2023/07/19 01:34:57;;;;;;;3.40;2.43;;;18.10;99.90;;;;;;4997235;28;20498;-66
2023/07/19 01:37:23;;;;;;;3.23;2.60;;;18.10;99.90;;;;;;4999643;28;20204;-67
2023/07/19 01:39:49;;;;;;;4.10;3.53;;;18.10;99.90;;;;;;4996016;28;20185;-67
2023/07/19 01:42:15;;;;;;;4.73;2.70;;;18.20;99.90;;;;;;5007440;28;20205;-68
2023/07/19 01:44:40;;;;;;;3.40;2.80;;;18.10;99.90;;;;;;5000289;28;20433;-67
2023/07/19 01:47:06;;;;;;;5.87;3.47;;;18.10;99.90;;;;;;5002158;28;20202;-67
2023/07/19 01:49:32;;;;;;;4.23;2.90;;;18.00;99.90;;;;;;5001331;28;20176;-67
2023/07/19 01:51:57;;;;;;;2.90;2.50;;;18.00;99.90;;;;;;5000890;28;20181;-67
2023/07/19 01:54:23;;;;;;;3.97;2.90;;;17.90;99.90;;;;;;5001063;28;20185;-67
2023/07/19 01:56:48;;;;;;;4.47;4.07;;;18.00;99.90;;;;;;5002813;28;20696;-67
2023/07/19 01:59:14;;;;;;;4.63;3.30;;;17.90;99.90;;;;;;5000218;28;20178;-67
2023/07/19 02:01:40;;;;;;;3.30;3.00;;;17.90;99.90;;;;;;5000232;28;20330;-67
2023/07/19 02:04:05;;;;;;;4.40;3.23;;;17.90;99.90;;;;;;5003280;28;20631;-67
2023/07/19 02:06:31;;;;;;;5.70;2.70;;;17.90;99.90;;;;;;5000254;28;20218;-67
2023/07/19 02:08:57;;;;;;;3.30;2.40;;;18.00;99.90;;;;;;4998903;28;20659;-66
2023/07/19 02:11:22;;;;;;;7.43;3.40;;;17.90;99.90;;;;;;5000727;28;20180;-67
2023/07/19 02:13:48;;;;;;;7.30;2.90;;;17.80;99.90;;;;;;5004146;28;20478;-69
2023/07/19 02:16:15;;;;;;;3.90;2.97;;;17.80;99.90;;;;;;5000372;28;20184;-66
2023/07/19 02:18:40;;;;;;;4.40;2.47;;;17.80;99.90;;;;;;5003992;28;20179;-67
2023/07/19 02:21:06;;;;;;;2.63;2.20;;;17.90;99.90;;;;;;5003503;28;20469;-67
2023/07/19 02:23:33;;;;;;;4.73;2.70;;;17.90;99.90;;;;;;4997411;28;20175;-67
2023/07/19 02:25:59;;;;;;;3.30;2.97;;;17.80;99.90;;;;;;5001926;28;20198;-67
2023/07/19 02:28:24;;;;;;;3.37;2.50;;;17.80;99.90;;;;;;4999278;28;20976;-66
2023/07/19 02:30:50;;;;;;;4.60;2.87;;;17.70;99.90;;;;;;5001174;28;20187;-67
2023/07/19 02:33:16;;;;;;;4.93;2.90;;;17.70;99.90;;;;;;4999451;28;20176;-67
2023/07/19 02:35:42;;;;;;;5.63;2.30;;;17.80;99.90;;;;;;5004440;28;20282;-67
2023/07/19 02:38:08;;;;;;;3.30;2.50;;;17.90;99.90;;;;;;5001317;28;20648;-66
2023/07/19 02:40:34;;;;;;;3.80;2.20;;;18.10;99.90;;;;;;4999698;28;20568;-66
2023/07/19 02:43:00;;;;;;;3.83;2.00;;;18.10;99.90;;;;;;5008696;28;21158;-67
2023/07/19 02:45:25;;;;;;;3.97;2.47;;;18.10;99.90;;;;;;5002219;28;20187;-67
2023/07/19 02:47:51;;;;;;;4.10;2.30;;;18.30;99.90;;;;;;5004350;28;20700;-67
2023/07/19 02:50:20;;;;;;;3.23;1.93;;;18.30;99.90;;;;;;5008557;28;20568;-66
2023/07/19 02:52:46;;;;;;;3.20;2.70;;;18.30;99.90;;;;;;5001161;28;20180;-67
2023/07/19 02:55:12;;;;;;;2.97;2.17;;;18.10;99.90;;;;;;4998409;28;20437;-67
2023/07/19 02:57:38;;;;;;;2.90;2.00;;;18.10;99.90;;;;;;5003448;28;20461;-67
2023/07/19 03:00:05;;;;;;;2.33;1.73;;;18.10;99.90;;;;;;5009149;28;20940;-67
2023/07/19 03:02:30;;;;;;;3.20;1.90;;;18.10;99.90;;;;;;5002849;28;20563;-67
2023/07/19 03:04:56;;;;;;;3.03;2.20;;;18.10;99.90;;;;;;5000686;28;20966;-67
2023/07/19 03:07:24;;;;;;;3.43;2.37;;;18.10;99.90;;;;;;4994413;28;20593;-66
2023/07/19 03:09:50;;;;;;;6.30;2.57;;;18.20;99.90;;;;;;5000229;28;20219;-67
2023/07/19 03:12:15;;;;;;;2.53;2.33;;;18.30;99.90;;;;;;4995407;28;20474;-66
2023/07/19 03:14:41;;;;;;;2.10;1.87;;;18.30;99.90;;;;;;4996256;28;20896;-67
2023/07/19 03:17:06;;;;;;;3.00;2.27;;;18.20;99.90;;;;;;5003341;28;20592;-67
2023/07/19 03:19:32;;;;;;;2.73;1.60;;;18.40;99.90;;;;;;4997104;28;20606;-66
2023/07/19 03:21:58;;;;;;;4.10;2.03;;;18.40;99.90;;;;;;5001522;28;20203;-66
2023/07/19 03:24:24;;;;;;;2.57;1.90;;;18.40;99.90;;;;;;5000720;28;20920;-67
2023/07/19 03:26:49;;;;;;;3.60;2.00;;;18.40;99.90;;;;;;5001032;28;20198;-67
2023/07/19 03:29:15;;;;;;;3.10;2.10;;;18.30;99.90;;;;;;4998924;28;20179;-67
2023/07/19 03:31:40;;;;;;;3.27;2.00;;;18.40;99.90;;;;;;4999956;28;20298;-67
2023/07/19 03:34:06;;;;;;;1.70;1.50;;;18.40;99.90;;;;;;5002825;28;20188;-67
2023/07/19 03:36:32;;;;;;;2.27;2.00;;;18.40;99.90;;;;;;5003033;28;20212;-67
2023/07/19 03:38:57;;;;;;;2.10;2.00;;;18.50;99.90;;;;;;5003636;28;20182;-66
2023/07/19 03:41:23;;;;;;;2.20;1.47;;;18.50;99.90;;;;;;4996975;28;20631;-66
2023/07/19 03:43:52;;;;;;;3.43;1.90;;;18.60;99.90;;;;;;5000028;28;20177;-66
2023/07/19 03:46:17;;;;;;;2.23;2.03;;;18.60;99.90;;;;;;4999827;28;20437;-66
2023/07/19 03:48:43;;;;;;;2.57;2.07;;;18.70;99.90;;;;;;5016328;28;20426;-67
2023/07/19 03:51:08;;;;;;;4.60;2.50;;;18.70;99.90;;;;;;5009282;28;20194;-66
2023/07/19 03:53:34;;;;;;;2.13;1.80;;;18.60;99.90;;;;;;5012440;28;20183;-65
2023/07/19 03:56:00;;;;;;;1.77;1.50;;;18.60;99.90;;;;;;5007762;28;20589;-67
2023/07/19 03:58:27;;;;;;;2.83;1.80;;;18.80;99.90;;;;;;5005571;28;20200;-66
2023/07/19 04:00:53;;;;;;;3.43;1.90;;;18.90;99.90;;;;;;5005675;28;20464;-65
2023/07/19 04:03:19;;;;;;;2.73;2.03;;;18.90;99.90;;;;;;5007490;28;20529;-66
2023/07/19 04:05:45;;;;;;;2.90;2.23;;;18.90;99.90;;;;;;5011562;28;20434;-66
2023/07/19 04:08:15;;;;;;;2.90;1.87;;;18.90;99.90;;;;;;5012571;28;20434;-65
2023/07/19 04:10:42;;;;;;;1.90;1.50;;;18.90;99.90;;;;;;5005271;28;20190;-65
2023/07/19 04:13:11;;;;;;;2.97;2.13;;;19.00;99.90;;;;;;5021071;28;20436;-67
2023/07/19 04:15:37;;;;;;;4.63;2.30;;;19.00;99.90;;;;;;5017037;28;20431;-66
2023/07/19 04:18:03;;;;;;;3.20;2.00;;;19.00;99.90;;;;;;5008838;28;20897;-66
2023/07/19 04:20:29;;;;;;;3.33;2.00;;;19.30;99.90;;;;;;5011107;28;20222;-68
2023/07/19 04:22:55;;;;;;;2.93;2.70;;;19.50;99.90;;;;;;5010116;28;20432;-68
2023/07/19 04:25:21;;;;;;;2.73;2.30;;;19.30;99.90;;;;;;5006744;28;20440;-68
2023/07/19 04:27:47;;;;;;;4.83;2.30;;;19.30;99.90;;;;;;5011424;28;20215;-66
2023/07/19 04:30:13;;;;;;;2.30;1.93;;;19.50;99.90;;;;;;5022113;28;20414;-66
2023/07/19 04:32:39;;;;;;;2.77;1.80;;;19.60;99.90;;;;;;5013609;28;20443;-65
2023/07/19 04:35:06;;;;;;;3.97;1.57;;;19.60;99.90;;;;;;5013268;28;20416;-66
2023/07/19 04:37:32;;;;;;;2.60;2.13;;;19.60;99.90;;;;;;5015732;28;20188;-65
2023/07/19 04:39:58;;;;;;;2.57;2.20;;;19.70;99.90;;;;;;5012505;28;20427;-66
2023/07/19 04:42:24;;;;;;;5.73;1.80;;;19.70;99.90;;;;;;5011040;28;20550;-66
2023/07/19 04:44:49;;;;;;;3.83;2.93;;;19.80;99.90;;;;;;5016407;28;20579;-66
2023/07/19 04:47:15;;;;;;;2.03;1.73;;;19.70;99.90;;;;;;5010461;28;20682;-66
2023/07/19 04:49:41;;;;;;;3.67;2.33;;;19.70;99.90;;;;;;5010052;28;20182;-66
2023/07/19 04:52:07;;;;;;;2.77;1.93;;;19.70;99.90;;;;;;5013106;28;20234;-67
2023/07/19 04:54:32;;;;;;;1.43;1.33;;;19.70;99.90;;;;;;5013860;28;20180;-66
2023/07/19 04:56:58;;;;;;;2.37;2.10;;;19.70;99.90;;;;;;5013861;28;20493;-66
2023/07/19 04:59:24;;;;;;;1.73;1.63;;;19.80;99.90;;;;;;5004135;28;20181;-67
2023/07/19 05:01:50;;;;;;;2.67;1.30;;;19.90;99.90;;;;;;5007668;28;20563;-66
2023/07/19 05:04:15;;;;;;;2.67;1.97;;;20.00;99.90;;;;;;5009904;28;20186;-66
2023/07/19 05:06:41;;;;;;;2.70;1.97;;;20.10;99.90;;;;;;5012592;28;20193;-67
2023/07/19 05:09:09;;;;;;;3.60;2.00;;;20.10;99.90;;;;;;5012336;28;20265;-65
2023/07/19 05:11:35;;;;;;;2.83;1.93;;;20.00;99.90;;;;;;5008636;28;20186;-65
2023/07/19 05:14:00;;;;;;;2.50;1.90;;;20.00;99.90;;;;;;5009919;28;20438;-68
2023/07/19 05:16:26;;;;;;;4.57;1.87;;;20.10;99.90;;;;;;5008310;28;20172;-65
2023/07/19 05:18:52;;;;;;;2.10;1.90;;;20.20;99.90;;;;;;5002960;28;20175;-66
2023/07/19 05:21:18;;;;;;;1.90;1.60;;;20.30;99.90;;;;;;5003974;28;20304;-68
2023/07/19 05:23:44;;;;;;;1.67;1.40;;;20.10;99.90;;;;;;5009223;28;20439;-65
2023/07/19 05:26:09;;;;;;;3.00;1.80;;;20.30;99.90;;;;;;5040985;23;20480;-69
2023/07/19 05:28:35;;;;;;;2.93;2.03;;;20.30;99.90;;;;;;5076655;28;20194;-68
2023/07/19 05:31:07;;;;;;;2.53;1.70;;;20.40;99.90;;;;;;5077846;28;20180;-67
2023/07/19 05:33:33;;;;;;;4.80;2.00;;;20.40;99.90;;;;;;5081084;28;20436;-68
2023/07/19 05:36:00;;;;;;;7.70;1.93;;;20.50;99.90;;;;;;5060674;28;20422;-68
2023/07/19 05:38:26;;;;;;;1.83;1.60;;;20.50;99.90;;;;;;5058192;28;20436;-68
2023/07/19 05:40:51;;;;;;;2.67;1.67;;;20.60;99.90;;;;;;5064162;28;20451;-68
2023/07/19 05:43:18;;;;;;;4.83;1.93;;;20.60;99.90;;;;;;5057687;28;21000;-68
2023/07/19 05:45:44;;;;;;;1.87;1.33;;;20.70;99.90;;;;;;5057571;28;20531;-69
2023/07/19 05:48:10;;;;;;;2.67;1.70;;;20.60;99.90;;;;;;5040669;28;20498;-69
2023/07/19 05:50:37;;;;;;;2.20;1.80;;;20.90;99.60;;;;;;5054533;28;20423;-69
2023/07/19 05:53:03;;;;;;;4.03;1.40;;;20.80;99.90;;;;;;5057656;28;20411;-69
2023/07/19 05:55:29;;;;;;;3.40;2.10;;;20.80;99.90;;;;;;5058130;28;20421;-69
2023/07/19 05:57:54;;;;;;;4.03;2.20;;;21.00;99.50;;;;;;5049800;28;20216;-69
2023/07/19 06:00:24;;;;;;;2.20;2.00;;;21.20;99.90;;;;;;5031806;28;20177;-69
2023/07/19 06:02:52;;;;;;;4.90;1.80;;;21.20;99.40;;;;;;5055997;28;20504;-69
2023/07/19 06:05:18;;;;;;;3.57;1.77;;;21.30;99.50;;;;;;5032798;28;20415;-69
2023/07/19 06:07:45;;;;;;;7.83;1.73;;;21.70;99.30;;;;;;5059101;28;20427;-68
2023/07/19 06:10:10;;;;;;;2.40;1.40;;;22.10;99.10;;;;;;5062195;28;20897;-69
2023/07/19 06:12:36;;;;;;;5.13;1.90;;;22.20;98.30;;;;;;5060477;28;20490;-70
2023/07/19 06:15:02;;;;;;;3.43;1.73;;;22.40;98.70;;;;;;5059890;28;20229;-70
2023/07/19 06:17:27;;;;;;;9.50;2.20;;;21.90;98.20;;;;;;5044335;28;20197;-70
2023/07/19 06:19:53;;;;;;;2.40;1.43;;;21.80;98.10;;;;;;5046264;28;20431;-70
2023/07/19 06:22:19;;;;;;;3.80;2.20;;;21.70;98.20;;;;;;5054282;28;20202;-70
2023/07/19 06:24:44;;;;;;;3.23;2.00;;;22.10;98.60;;;;;;5051599;28;20530;-70
2023/07/19 06:27:10;;;;;;;2.80;1.93;;;22.30;98.40;;;;;;5057110;28;20280;-70
2023/07/19 06:29:36;;;;;;;3.37;2.20;;;22.10;98.10;;;;;;5046650;28;20264;-70
2023/07/19 06:32:01;;;;;;;3.03;1.70;;;22.50;97.90;;;;;;5053441;28;20175;-68
2023/07/19 06:34:27;;;;;;;3.20;2.70;;;22.60;97.60;;;;;;5029907;28;20175;-70
2023/07/19 06:36:52;;;;;;;4.83;1.70;;;22.90;97.00;;;;;;5059068;28;20193;-69
2023/07/19 06:39:19;;;;;;;4.93;1.93;;;22.80;96.10;;;;;;5052294;28;20527;-69
2023/07/19 06:41:45;;;;;;;4.43;2.03;;;22.80;97.00;;;;;;5060316;28;20613;-70
2023/07/19 06:44:12;;;;;;;2.30;1.70;;;23.10;96.70;;;;;;5051170;28;20558;-70
2023/07/19 06:46:38;;;;;;;3.60;1.70;;;23.00;96.80;;;;;;5050513;28;20459;-70
2023/07/19 06:49:03;;;;;;;4.73;2.07;;;23.70;96.60;;;;;;5049519;28;20453;-70
2023/07/19 06:51:29;;;;;;;2.03;1.73;;;23.70;96.60;;;;;;5052283;28;20632;-69
2023/07/19 06:53:55;;;;;;;3.13;1.87;;;23.50;96.80;;;;;;5054885;28;20176;-69
2023/07/19 06:56:21;;;;;;;3.77;1.50;;;23.50;95.00;;;;;;5051507;28;20447;-70
2023/07/19 06:58:46;;;;;;;3.27;1.70;;;23.70;95.40;;;;;;5046069;28;20189;-70
2023/07/19 07:01:12;;;;;;;4.23;2.27;;;23.80;96.00;;;;;;5046542;28;20240;-70
2023/07/19 07:03:38;;;;;;;4.73;2.07;;;23.80;95.30;;;;;;5045795;28;20181;-69
2023/07/19 07:06:03;;;;;;;2.17;1.97;;;24.10;95.70;;;;;;5048872;28;20199;-70
2023/07/19 07:08:29;;;;;;;3.30;1.60;;;24.70;94.80;;;;;;5050164;28;20182;-70
2023/07/19 07:10:54;;;;;;;5.87;2.10;;;24.70;93.80;;;;;;5055231;28;20178;-69
2023/07/19 07:13:20;;;;;;;3.00;1.80;;;24.60;95.10;;;;;;5056002;28;20204;-69
2023/07/19 07:15:46;;;;;;;7.87;2.17;;;24.70;94.80;;;;;;5048438;28;20182;-69
2023/07/19 07:18:11;;;;;;;6.33;2.27;;;24.70;95.50;;;;;;5055650;28;20258;-69
2023/07/19 07:20:37;;;;;;;1.97;1.83;;;25.10;94.50;;;;;;5049421;28;20588;-69
2023/07/19 07:23:03;;;;;;;3.00;2.30;;;24.70;94.20;;;;;;5052930;28;20216;-70
2023/07/19 07:25:30;;;;;;;4.27;2.57;;;24.70;94.50;;;;;;5053445;28;20441;-69
2023/07/19 07:27:57;;;;;;;4.80;2.20;;;24.80;94.50;;;;;;5052010;28;20236;-70
2023/07/19 07:30:22;;;;;;;2.43;2.00;;;24.90;93.90;;;;;;5049078;28;20803;-70
2023/07/19 07:32:49;;;;;;;2.43;2.00;;;25.30;93.50;;;;;;5055027;28;20415;-71
2023/07/19 07:35:15;;;;;;;3.77;2.30;;;25.60;94.10;;;;;;5053355;28;20210;-71
2023/07/19 07:37:41;;;;;;;2.50;2.00;;;25.40;93.10;;;;;;5057857;28;20471;-70
2023/07/19 07:40:10;;;;;;;3.77;2.10;;;25.70;92.80;;;;;;5035545;28;20421;-70
2023/07/19 07:42:39;;;;;;;4.03;2.43;;;26.10;93.10;;;;;;5061492;28;20197;-70
2023/07/19 07:45:05;;;;;;;4.17;2.10;;;26.20;92.30;;;;;;5053216;28;20474;-70
2023/07/19 07:47:31;;;;;;;2.20;1.77;;;26.30;92.20;;;;;;5054228;28;20449;-69
2023/07/19 07:49:57;;;;;;;2.37;1.97;;;27.10;91.90;;;;;;5050680;28;20433;-69
2023/07/19 07:52:25;;;;;;;5.10;2.70;;;27.40;91.70;;;;;;5055068;28;20760;-70
2023/07/19 07:54:51;;;;;;;2.90;2.57;;;28.00;91.50;;;;;;5055919;28;20407;-69
2023/07/19 07:57:17;;;;;;;3.97;2.27;;;27.90;90.90;;;;;;5034386;28;20421;-69
2023/07/19 07:59:44;;;;;;;6.60;2.57;;;27.60;89.30;;;;;;5058332;28;20401;-70
2023/07/19 08:02:09;;;;;;;4.10;2.50;;;27.80;89.90;;;;;;5047920;28;20199;-69
2023/07/19 08:04:35;;;;;;;4.13;2.37;;;27.30;88.20;;;;;;5053365;28;20466;-69
2023/07/19 08:07:00;;;;;;;4.10;2.33;;;27.00;90.00;;;;;;5051193;28;20191;-72
2023/07/19 08:09:27;;;;;;;4.37;2.37;;;26.90;91.00;;;;;;5059192;28;20171;-69
2023/07/19 08:11:53;;;;;;;5.73;3.40;;;26.70;91.10;;;;;;5049416;28;20262;-71
2023/07/19 08:14:19;;;;;;;4.23;1.90;;;26.80;90.10;;;;;;5054497;28;20832;-69
2023/07/19 08:16:46;;;;;;;3.03;2.00;;;26.40;88.80;;;;;;5053634;28;20203;-70
2023/07/19 08:19:12;;;;;;;3.07;1.97;;;25.80;90.90;;;;;;5033548;28;20974;-70
2023/07/19 08:21:37;;;;;;;4.13;2.57;;;25.50;90.50;;;;;;5058170;28;20547;-70
2023/07/19 08:24:03;;;;;;;2.53;2.07;;;25.90;91.20;;;;;;5057741;28;20492;-70
2023/07/19 08:26:29;;;;;;;2.60;1.90;;;25.80;91.30;;;;;;5042254;28;20210;-70
2023/07/19 08:28:55;;;;;;;3.80;2.63;;;25.80;92.00;;;;;;5059662;28;20412;-71
2023/07/19 08:31:20;;;;;;;5.43;2.27;;;26.00;91.50;;;;;;5049141;28;20221;-70
2023/07/19 08:33:46;;;;;;;2.10;1.90;;;26.00;91.80;;;;;;5050548;28;20185;-71
2023/07/19 08:36:12;;;;;;;4.73;3.20;;;25.50;91.30;;;;;;5053166;28;20205;-69
2023/07/19 08:38:37;;;;;;;4.17;2.53;;;25.70;91.80;;;;;;5052847;28;20217;-69
2023/07/19 08:41:05;;;;;;;4.47;2.53;;;25.80;91.60;;;;;;5053613;28;20190;-69
2023/07/19 08:43:33;;;;;;;3.70;3.10;;;26.10;90.60;;;;;;5056796;28;20187;-69
2023/07/19 08:45:59;;;;;;;3.47;2.87;;;26.20;91.30;;;;;;5050738;28;20432;-69
2023/07/19 08:48:26;;;;;;;3.90;2.40;;;26.00;92.30;;;;;;5051909;28;20571;-68
2023/07/19 08:50:55;;;;;;;5.43;3.50;;;25.80;91.60;;;;;;5050968;28;20632;-69
2023/07/19 08:53:23;;;;;;;3.57;2.27;;;26.60;90.80;;;;;;5049004;28;20492;-70
2023/07/19 08:55:50;;;;;;;4.90;2.37;;;27.40;88.10;;;;;;5051321;28;20466;-69
2023/07/19 08:58:19;;;;;;;2.90;2.47;;;26.50;88.70;;;;;;5052416;28;20438;-69
2023/07/19 09:00:49;;;;;;;4.60;2.10;;;26.50;89.80;;;;;;5058389;28;20762;-70
2023/07/19 09:03:15;;;;;;;2.97;2.23;;;27.40;87.90;;;;;;5051384;28;20421;-71
2023/07/19 09:05:43;;;;;;;3.40;1.87;;;27.70;86.80;;;;;;5048889;28;20516;-70
2023/07/19 09:08:09;;;;;;;2.27;2.07;;;27.40;87.50;;;;;;5051362;28;20425;-69
2023/07/19 09:10:35;;;;;;;4.10;1.90;;;28.00;84.20;;;;;;5053578;28;20411;-70
2023/07/19 09:13:05;;;;;;;2.13;1.80;;;28.50;83.90;;;;;;5052306;28;20174;-69
2023/07/19 09:15:36;;;;;;;4.33;2.13;;;27.40;85.00;;;;;;5042841;28;20403;-70
2023/07/19 09:18:05;;;;;;;4.90;3.50;;;27.80;85.90;;;;;;5054191;28;20531;-71
2023/07/19 09:20:34;;;;;;;6.80;4.20;;;27.50;84.90;;;;;;5053757;28;20433;-69
2023/07/19 09:23:04;;;;;;;5.67;2.07;;;27.40;85.30;;;;;;5046571;28;20429;-69
2023/07/19 09:25:30;;;;;;;6.50;3.60;;;28.10;84.60;;;;;;5053556;28;20401;-69
2023/07/19 09:27:56;;;;;;;5.57;4.70;;;28.60;83.90;;;;;;5043278;28;20850;-69
2023/07/19 09:30:21;;;;;;;5.20;4.70;;;29.60;79.90;;;;;;5046462;28;20657;-71
2023/07/19 09:32:58;;;;;;;10.97;8.80;;;29.80;80.70;;;;;;5046093;28;20174;-69
2023/07/19 09:35:27;;;;;;;5.53;5.03;;;29.30;79.90;;;;;;5062543;28;20178;-68
2023/07/19 09:37:53;;;;;;;2.30;1.70;;;29.40;79.30;;;;;;5051331;28;20451;-70
2023/07/19 09:40:19;;;;;;;2.40;1.53;;;29.50;78.30;;;;;;5055005;28;20413;-69
2023/07/19 09:42:45;;;;;;;2.43;2.00;;;28.30;80.10;;;;;;5068696;28;20500;-69
2023/07/19 09:45:11;;;;;;;9.50;2.67;;;27.80;81.90;;;;;;5061580;28;20452;-69
2023/07/19 09:47:39;;;;;;;6.13;4.23;;;27.70;83.10;;;;;;5070495;28;20282;-69
2023/07/19 09:50:06;;;;;;;4.87;3.87;;;28.70;80.20;;;;;;5038566;28;20422;-69
2023/07/19 09:52:40;;;;;;;5.50;4.47;;;29.80;78.00;;;;;;5070940;28;20416;-69
2023/07/19 09:55:06;;;;;;;7.03;2.83;;;29.70;77.30;;;;;;5042176;28;20444;-69
2023/07/19 09:57:35;;;;;;;5.83;4.33;;;29.70;77.30;;;;;;5056781;28;20459;-70
2023/07/19 10:00:03;;;;;;;6.17;4.50;;;29.10;80.20;;;;;;5066686;28;20417;-67
2023/07/19 10:02:29;;;;;;;7.03;5.10;;;29.10;79.90;;;;;;5057991;28;20456;-68
2023/07/19 10:04:55;;;;;;;28.20;20.20;;;29.60;79.60;;;;;;5070311;28;20443;-70
2023/07/19 10:07:24;;;;;;;25.30;21.27;;;29.00;77.70;;;;;;5060715;28;20524;-70
2023/07/19 10:10:00;;;;;;;7.63;4.73;;;29.50;76.10;;;;;;5066957;28;20254;-69
2023/07/19 10:12:27;;;;;;;11.10;9.57;;;29.10;78.10;;;;;;5058308;28;20929;-69
2023/07/19 10:15:07;;;;;;;2.20;2.00;;;29.10;78.10;;;;;;5057651;28;20428;-70
2023/07/19 10:17:51;;;;;;;4.63;3.77;;;28.40;78.30;;;;;;5063655;28;20484;-69
2023/07/19 10:20:17;;;;;;;5.23;3.90;;;28.00;78.60;;;;;;5061431;28;21135;-68
2023/07/19 10:22:55;;;;;;;4.73;3.00;;;27.90;78.20;;;;;;5062739;28;20463;-69
2023/07/19 10:25:29;;;;;;;3.30;2.30;;;28.00;76.80;;;;;;5062558;28;20170;-70
2023/07/19 10:27:56;;;;;;;4.53;3.53;;;27.70;76.80;;;;;;5062610;28;20452;-70
2023/07/19 10:30:41;;;;;;;3.10;2.30;;;27.90;76.80;;;;;;5059254;28;20489;-69
2023/07/19 10:33:07;;;;;;;3.70;2.43;;;27.90;77.60;;;;;;5065593;28;20461;-67
2023/07/19 10:35:32;;;;;;;3.10;1.90;;;27.60;78.90;;;;;;5058956;28;20417;-70
2023/07/19 10:37:58;;;;;;;5.77;2.53;;;27.80;78.20;;;;;;5056601;28;20199;-67
2023/07/19 10:40:24;;;;;;;2.57;2.37;;;27.80;79.90;;;;;;5060679;28;20167;-69
2023/07/19 10:42:49;;;;;;;3.67;1.90;;;27.90;78.90;;;;;;5064263;28;20198;-70
2023/07/19 10:45:15;;;;;;;2.20;1.70;;;28.00;79.10;;;;;;5056683;28;20182;-71
2023/07/19 10:47:41;;;;;;;5.23;2.70;;;27.60;80.20;;;;;;5067668;28;20187;-70
2023/07/19 10:50:08;;;;;;;2.90;2.23;;;27.60;80.00;;;;;;5051711;28;20209;-70
2023/07/19 10:52:34;;;;;;;4.13;1.70;;;27.30;80.10;;;;;;5059898;28;20189;-70
2023/07/19 10:54:59;;;;;;;5.40;2.37;;;27.70;81.10;;;;;;5053824;28;20506;-70
2023/07/19 10:57:27;;;;;;;3.50;2.17;;;27.80;81.50;;;;;;5059006;28;20199;-69
2023/07/19 10:59:53;;;;;;;4.07;3.67;;;27.90;80.70;;;;;;5064540;28;20182;-70
2023/07/19 11:02:19;;;;;;;2.43;2.10;;;27.80;79.30;;;;;;5060472;28;20784;-69
2023/07/19 11:04:49;;;;;;;6.83;2.30;;;27.80;80.30;;;;;;5062432;28;20166;-70
2023/07/19 11:07:14;;;;;;;4.77;2.50;;;28.40;79.40;;;;;;5059301;28;20432;-70
2023/07/19 11:09:49;;;;;;;3.07;1.63;;;28.70;77.50;;;;;;5048004;28;20892;-68
2023/07/19 11:12:15;;;;;;;3.50;2.13;;;28.50;79.50;;;;;;5059338;28;20178;-71
2023/07/19 11:14:44;;;;;;;2.20;2.00;;;28.40;78.80;;;;;;5037755;28;20971;-68
2023/07/19 11:17:24;;;;;;;2.70;2.20;;;28.40;78.20;;;;;;5061902;28;20448;-69
2023/07/19 11:19:50;;;;;;;5.20;2.47;;;28.90;76.60;;;;;;5051206;28;20416;-69
2023/07/19 11:22:22;;;;;;;4.33;2.40;;;29.40;75.70;;;;;;5062022;28;20445;-70
2023/07/19 11:24:49;;;;;;;3.00;2.03;;;28.50;76.20;;;;;;5060261;28;20178;-70
2023/07/19 11:27:16;;;;;;;3.57;2.83;;;28.20;77.10;;;;;;5041627;28;20453;-71
2023/07/19 11:29:42;;;;;;;5.83;2.10;;;28.20;77.40;;;;;;5063073;28;20412;-68
2023/07/19 11:32:23;;;;;;;2.47;1.87;;;27.80;78.40;;;;;;5055078;28;20417;-72
2023/07/19 11:34:56;;;;;;;4.07;2.53;;;27.30;79.80;;;;;;5053620;28;20173;-71
2023/07/19 11:37:29;;;;;;;2.33;1.60;;;27.80;79.80;;;;;;5058979;28;20440;-69
2023/07/19 11:39:59;;;;;;;5.30;1.90;;;27.60;81.10;;;;;;5061871;28;20416;-72
2023/07/19 11:42:47;;;;;;;2.30;1.70;;;27.50;80.20;;;;;;5058568;28;20465;-68
2023/07/19 11:45:18;;;;;;;3.13;1.87;;;27.50;79.60;;;;;;5031986;28;20904;-67
2023/07/19 11:47:45;;;;;;;2.77;2.27;;;27.70;79.60;;;;;;5057232;28;20547;-70
2023/07/19 11:50:12;;;;;;;2.87;2.20;;;28.30;79.80;;;;;;5061492;28;20884;-69
2023/07/19 11:52:46;;;;;;;4.23;2.23;;;27.80;79.90;;;;;;5065766;28;20439;-71
2023/07/19 11:55:16;;;;;;;4.80;2.13;;;27.40;79.50;;;;;;5059608;28;20474;-70
2023/07/19 11:57:43;;;;;;;4.80;3.30;;;27.30;80.60;;;;;;5051825;28;20519;-70
2023/07/19 12:00:10;;;;;;;3.30;2.00;;;27.80;79.40;;;;;;5041730;28;20417;-70
2023/07/19 12:02:37;;;;;;;2.57;1.80;;;27.90;79.60;;;;;;5059150;28;20970;-69
2023/07/19 12:05:04;;;;;;;1.97;1.50;;;26.90;80.60;;;;;;5066710;28;20424;-69
2023/07/19 12:07:31;;;;;;;2.30;2.10;;;27.30;80.70;;;;;;5063845;28;20531;-70
2023/07/19 12:09:57;;;;;;;3.83;2.00;;;27.40;80.50;;;;;;5068288;28;20444;-70
2023/07/19 12:12:23;;;;;;;1.90;1.80;;;27.40;80.70;;;;;;5063385;28;20417;-70
2023/07/19 12:14:49;;;;;;;3.50;2.03;;;27.10;81.70;;;;;;5061034;28;20836;-70
2023/07/19 12:17:14;;;;;;;2.30;2.10;;;27.10;81.10;;;;;;5057948;28;20212;-72
2023/07/19 12:19:40;;;;;;;3.30;2.13;;;27.30;80.50;;;;;;5059351;28;20181;-68
2023/07/19 12:22:05;;;;;;;2.80;2.00;;;27.10;81.60;;;;;;5065842;28;20294;-70
2023/07/19 12:24:31;;;;;;;4.13;2.27;;;27.20;81.60;;;;;;5064460;28;20172;-70
2023/07/19 12:26:57;;;;;;;6.67;2.63;;;27.10;82.70;;;;;;5065331;28;20209;-71
2023/07/19 12:29:25;;;;;;;4.40;3.43;;;27.30;81.90;;;;;;5061082;28;20185;-69
2023/07/19 12:31:51;;;;;;;2.53;2.33;;;27.40;81.60;;;;;;5065569;28;20234;-70
2023/07/19 12:34:17;;;;;;;4.00;2.57;;;27.00;81.70;;;;;;5056840;28;20409;-70
2023/07/19 12:36:43;;;;;;;2.57;2.20;;;26.50;83.40;;;;;;5060341;28;20503;-69
2023/07/19 12:39:09;;;;;;;4.10;2.53;;;26.60;83.80;;;;;;5065694;28;20501;-70
2023/07/19 12:41:34;;;;;;;4.33;3.03;;;26.90;83.20;;;;;;5063615;28;20207;-69
2023/07/19 12:44:00;;;;;;;2.43;2.23;;;27.10;82.60;;;;;;5042169;28;20577;-70